createdAt,value
2022-08-07T00:02:56.143Z,15.60
2022-08-07T00:08:14.763Z,15.50
2022-08-07T00:13:28.969Z,15.50
2022-08-07T00:18:41.837Z,15.50
2022-08-07T00:23:49.065Z,15.30
2022-08-07T00:28:59.894Z,15.30
2022-08-07T00:34:09.665Z,15.20
2022-08-07T00:39:25.068Z,15.10
2022-08-07T00:44:44.224Z,15.10
2022-08-07T00:50:20.270Z,15.10
2022-08-07T00:55:25.318Z,15.00
2022-08-07T01:00:56.333Z,14.90
2022-08-07T01:06:11.254Z,15.00
2022-08-07T01:12:24.069Z,14.90
2022-08-07T01:17:04.112Z,14.80
2022-08-07T01:22:22.568Z,14.80
2022-08-07T01:27:50.890Z,14.80
2022-08-07T01:33:07.030Z,14.90
2022-08-07T01:38:25.199Z,14.80
2022-08-07T01:43:47.805Z,14.80
2022-08-07T01:48:57.142Z,14.80
2022-08-07T01:54:32.958Z,14.80
2022-08-07T01:59:48.400Z,14.60
2022-08-07T02:05:08.660Z,14.30
2022-08-07T02:10:42.244Z,14.20
2022-08-07T02:16:00.684Z,14.10
2022-08-07T02:21:13.872Z,14.10
2022-08-07T02:27:17.946Z,14.10
2022-08-07T02:32:18.518Z,14.00
2022-08-07T02:43:02.060Z,14.00
2022-08-07T02:48:15.717Z,13.90
2022-08-07T02:53:22.101Z,13.80
2022-08-07T02:58:55.352Z,13.70
2022-08-07T03:04:17.259Z,13.70
2022-08-07T03:09:43.432Z,13.70
2022-08-07T03:15:09.586Z,13.70
2022-08-07T03:20:22.612Z,13.60
2022-08-07T03:25:40.406Z,13.50
2022-08-07T03:31:11.760Z,13.50
2022-08-07T03:36:42.717Z,13.30
2022-08-07T03:41:53.691Z,13.30
2022-08-07T03:47:10.863Z,13.20
2022-08-07T03:52:29.920Z,13.20
2022-08-07T03:58:33.841Z,13.10
2022-08-07T04:03:22.659Z,13.10
2022-08-07T04:08:45.072Z,13.10
2022-08-07T04:14:38.509Z,12.90
2022-08-07T04:19:54.396Z,12.90
2022-08-07T04:25:12.588Z,12.80
2022-08-07T04:30:43.413Z,12.80
2022-08-07T04:35:54.022Z,12.80
2022-08-07T04:41:09.992Z,13.00
2022-08-07T04:52:11.459Z,13.10
2022-08-07T05:04:00.387Z,13.50
2022-08-07T05:09:08.569Z,13.60
2022-08-07T05:14:53.823Z,13.90
2022-08-07T05:19:50.080Z,14.20
2022-08-07T05:24:55.403Z,14.20
2022-08-07T05:29:57.615Z,14.30
2022-08-07T05:35:11.933Z,14.40
2022-08-07T05:40:24.125Z,14.50
2022-08-07T05:45:47.651Z,14.70
2022-08-07T05:50:50.973Z,14.90
2022-08-07T05:56:03.650Z,15.10
2022-08-07T06:01:14.838Z,15.30
2022-08-07T06:06:20.882Z,15.50
2022-08-07T06:11:28.653Z,15.70
2022-08-07T06:16:33.296Z,15.80
2022-08-07T06:22:14.680Z,16.20
2022-08-07T06:27:08.186Z,16.30
2022-08-07T06:32:13.255Z,16.50
2022-08-07T06:37:21.439Z,16.80
2022-08-07T06:42:34.950Z,16.90
2022-08-07T06:47:38.749Z,17.10
2022-08-07T06:53:00.709Z,17.30
2022-08-07T06:58:10.924Z,17.60
2022-08-07T07:03:14.518Z,17.60
2022-08-07T07:08:25.732Z,17.90
2022-08-07T07:13:56.054Z,17.90
2022-08-07T07:18:59.564Z,18.00
2022-08-07T07:24:06.410Z,18.30
2022-08-07T07:29:56.781Z,18.50
2022-08-07T07:34:43.853Z,18.60
2022-08-07T07:39:54.222Z,18.90
2022-08-07T07:45:01.299Z,19.30
2022-08-07T07:50:34.082Z,19.50
2022-08-07T07:55:37.544Z,19.80
2022-08-07T08:00:53.608Z,20.00
2022-08-07T08:05:56.487Z,20.40
2022-08-07T08:11:00.551Z,20.80
2022-08-07T08:16:06.180Z,21.00
2022-08-07T08:21:17.602Z,21.10
2022-08-07T08:26:22.397Z,21.20
2022-08-07T08:32:16.843Z,21.70
2022-08-07T08:37:09.851Z,22.00
2022-08-07T08:42:36.890Z,22.20
2022-08-07T08:47:57.534Z,22.40
2022-08-07T08:53:16.905Z,22.70
2022-08-07T08:58:29.971Z,22.80
2022-08-07T09:03:49.907Z,22.90
2022-08-07T09:09:03.098Z,23.30
2022-08-07T09:14:17.880Z,23.50
2022-08-07T09:19:52.985Z,23.70
2022-08-07T09:25:11.909Z,23.70
2022-08-07T09:30:20.662Z,23.70
2022-08-07T09:36:05.013Z,24.00
2022-08-07T09:41:09.224Z,24.30
2022-08-07T09:47:51.623Z,24.50
2022-08-07T09:52:09.831Z,24.70
2022-08-07T09:57:46.414Z,25.10
2022-08-07T10:04:06.192Z,25.20
2022-08-07T10:09:23.777Z,25.30
2022-08-07T10:15:18.776Z,25.40
2022-08-07T10:20:32.004Z,25.90
2022-08-07T10:25:55.061Z,26.50
2022-08-07T10:47:53.186Z,25.90
2022-08-07T10:52:59.869Z,26.40
2022-08-07T10:58:31.841Z,26.90
2022-08-07T11:03:54.901Z,26.90
2022-08-07T11:09:10.987Z,26.80
2022-08-07T11:14:44.915Z,26.80
2022-08-07T11:19:50.523Z,27.20
2022-08-07T11:24:59.749Z,27.70
2022-08-07T11:30:18.380Z,27.90
2022-08-07T11:35:33.940Z,27.90
2022-08-07T11:41:02.019Z,27.70
2022-08-07T11:52:05.717Z,28.00
2022-08-07T12:03:45.525Z,27.90
2022-08-07T12:14:56.129Z,28.20
2022-08-07T12:20:19.979Z,28.30
2022-08-07T12:26:06.105Z,28.30
2022-08-07T12:31:09.288Z,28.40
2022-08-07T12:36:15.306Z,28.00
2022-08-07T12:41:18.668Z,28.20
2022-08-07T12:46:34.500Z,28.20
2022-08-07T12:51:51.029Z,28.40
2022-08-07T12:57:09.797Z,28.10
2022-08-07T13:02:57.200Z,28.10
2022-08-07T13:08:22.097Z,28.40
2022-08-07T13:13:48.559Z,28.50
2022-08-07T13:18:59.023Z,28.70
2022-08-07T13:24:08.218Z,29.00
2022-08-07T13:29:19.549Z,29.10
2022-08-07T13:34:32.730Z,29.10
2022-08-07T13:46:28.867Z,28.80
2022-08-07T13:52:23.034Z,29.10
2022-08-07T14:26:28.428Z,28.30
2022-08-07T14:36:56.151Z,28.50
2022-08-07T14:42:18.699Z,28.70
2022-08-07T14:52:47.583Z,28.40
2022-08-07T15:03:22.107Z,28.70
2022-08-07T15:08:49.949Z,28.80
2022-08-07T15:14:01.003Z,28.30
2022-08-07T15:20:31.560Z,28.20
2022-08-07T15:25:13.546Z,28.30
2022-08-07T15:30:18.703Z,28.40
2022-08-07T15:36:00.563Z,28.20
2022-08-07T15:41:00.281Z,28.20
2022-08-07T15:46:31.123Z,28.10
2022-08-07T15:57:00.682Z,28.20
2022-08-07T16:02:05.000Z,28.00
2022-08-07T16:08:31.704Z,27.80
2022-08-07T16:12:41.161Z,27.60
2022-08-07T16:18:49.544Z,27.50
2022-08-07T16:23:58.560Z,27.30
2022-08-07T16:30:05.625Z,27.10
2022-08-07T16:34:45.526Z,26.90
2022-08-07T16:40:51.172Z,26.60
2022-08-07T16:52:29.780Z,26.10
2022-08-07T16:58:02.185Z,25.80
2022-08-07T17:03:17.220Z,25.60
2022-08-07T17:09:08.815Z,25.70
2022-08-07T17:14:19.146Z,25.60
2022-08-07T17:20:01.604Z,25.50
2022-08-07T17:25:04.295Z,25.50
2022-08-07T17:30:18.420Z,25.40
2022-08-07T17:35:49.703Z,25.20
2022-08-07T17:42:02.452Z,25.10
2022-08-07T17:46:34.566Z,25.10
2022-08-07T17:52:00.895Z,25.00
2022-08-07T17:57:18.768Z,25.00
2022-08-07T18:17:05.155Z,24.10
2022-08-07T18:22:17.158Z,24.00
2022-08-07T18:27:58.332Z,24.00
2022-08-07T18:33:28.886Z,23.90
2022-08-07T18:38:57.910Z,23.70
2022-08-07T18:44:10.193Z,23.30
2022-08-07T18:50:31.818Z,23.20
2022-08-07T18:54:53.658Z,23.10
2022-08-07T19:00:34.487Z,23.10
2022-08-07T19:06:02.202Z,22.80
2022-08-07T19:11:00.328Z,22.30
2022-08-07T19:17:01.014Z,21.60
2022-08-07T19:21:44.960Z,21.30
2022-08-07T19:28:58.488Z,21.00
2022-08-07T19:32:26.048Z,20.60
2022-08-07T19:37:57.210Z,20.30
2022-08-07T19:43:00.950Z,20.10
2022-08-07T19:48:05.957Z,20.00
2022-08-07T19:54:31.491Z,19.80
2022-08-07T19:58:52.926Z,19.60
2022-08-07T20:03:57.207Z,19.50
2022-08-07T20:09:00.936Z,19.30
2022-08-07T20:14:03.038Z,19.30
2022-08-07T20:19:11.280Z,19.20
2022-08-07T20:24:19.189Z,19.00
2022-08-07T20:29:48.672Z,18.90
2022-08-07T20:34:51.190Z,18.70
2022-08-07T20:40:02.716Z,18.70
2022-08-07T20:45:33.603Z,18.50
2022-08-07T20:50:30.936Z,18.40
2022-08-07T20:55:35.951Z,18.20
2022-08-07T21:00:45.380Z,18.00
2022-08-07T21:05:54.840Z,17.90
2022-08-07T21:11:02.758Z,17.70
2022-08-07T21:16:05.882Z,17.50
2022-08-07T21:21:09.087Z,17.30
2022-08-07T21:26:25.852Z,17.10
2022-08-07T21:32:42.452Z,17.00
2022-08-07T21:37:03.673Z,16.90
2022-08-07T21:42:37.553Z,16.70
2022-08-07T21:47:41.367Z,16.50
2022-08-07T21:53:00.137Z,16.30
2022-08-07T21:58:32.418Z,16.10
2022-08-07T22:03:40.730Z,15.90
2022-08-07T22:08:53.647Z,15.80
2022-08-07T22:13:59.897Z,15.70
2022-08-07T22:19:12.079Z,15.50
2022-08-07T22:24:17.437Z,15.40
2022-08-07T22:29:33.859Z,15.20
2022-08-07T22:34:53.182Z,15.10
2022-08-07T22:39:58.949Z,15.00
2022-08-07T22:45:11.109Z,15.00
2022-08-07T22:50:45.532Z,15.30
2022-08-07T22:55:57.773Z,15.30
2022-08-07T23:01:17.660Z,15.30
2022-08-07T23:06:36.018Z,15.40
2022-08-07T23:11:59.324Z,15.60
2022-08-07T23:17:29.391Z,15.80
2022-08-07T23:22:42.515Z,16.00
2022-08-07T23:28:21.190Z,16.30
2022-08-07T23:34:34.806Z,16.60
2022-08-07T23:39:41.436Z,16.80
2022-08-07T23:45:03.514Z,16.70
2022-08-07T23:50:26.374Z,16.60
2022-08-07T23:55:52.487Z,16.50
